KACK/ACK METAR and TAF weather

Enter ICAO airport designator
Station Type Date Time Source
KACK METAR 2019/10/16 18:53 UTC NOAA

KACK 161853Z 10017G23KT 10SM CLR 15/11 A2990 RMK AO2 SLP125 T01500111 $


Station Type Date Time Source
KACK Decoded METAR 2019/10/16 18:53 UTC NOAA

NANTUCKET MEMORIAL AIRPORT, MA, United States (KACK) 41-15N 70-04W 16M
Oct 16, 2019 - 02:53 PM EDT / 2019.10.16 1853 UTC
Wind: from the E (100 degrees) at 20 MPH (17 KT) gusting to 26 MPH (23 KT):0
Visibility: 10 mile(s):0
Sky conditions: clear
Temperature: 59.0 F (15.0 C)
Dew Point: 52.0 F (11.1 C)
Relative Humidity: 77%
Pressure (altimeter): 29.9 in. Hg (1012 hPa)
ob: KACK 161853Z 10017G23KT 10SM CLR 15/11 A2990 RMK AO2 SLP125 T01500111
cycle: 19

Station Type Date Time Source
KACK TAF 2019/10/16 18:54 UTC NOAA

TAF KACK 161744Z 1618/1718 11016KT P6SM SKC
FM170100 11025G32KT P6SM VCSH OVC035
FM170300 10032G41KT 2SM +RA BR OVC015 WS020/12055KT
FM170400 11032G45KT 2SM +RA BR OVC008
FM170800 21029G44KT P6SM VCSH BKN020
FM171100 23030G47KT P6SM SCT060
FM171600 24033G51KT P6SM VCSH BKN045

Example: see airport list